Time;durP1;ratioP1;P1;durP2;ratioP2;P2;SDS_P1;SDS_P2;PMS_P1;PMS_P2;Temp;Humidity;BMP_temperature;BMP_pressure;BME280_temperature;BME280_humidity;BME280_pressure;Samples;Min_cycle;Max_cycle;Signal;HPM_P1;HPM_P2
2022/12/06 00:01:37;;;;;;;5.13;3.20;;;;;;;3.74;77.91;101846.56;5114211;28;20087;-72
2022/12/06 00:04:10;;;;;;;6.60;3.00;;;;;;;3.87;77.72;101851.69;5106773;28;20126;-72
2022/12/06 00:06:38;;;;;;;4.65;2.90;;;;;;;3.89;76.77;101841.75;5103254;28;20028;-72
2022/12/06 00:09:04;;;;;;;8.55;3.00;;;;;;;3.91;76.81;101847.81;5111787;28;20023;-72
2022/12/06 00:11:33;;;;;;;4.97;3.00;;;;;;;3.98;77.23;101837.47;5099580;28;20024;-72
2022/12/06 00:14:04;;;;;;;5.85;3.20;;;;;;;3.96;76.32;101839.41;5107140;28;20103;-72
2022/12/06 00:16:30;;;;;;;4.43;2.83;;;;;;;3.98;76.25;101835.66;5109004;28;20092;-72
2022/12/06 00:18:57;;;;;;;5.72;2.65;;;;;;;3.99;76.08;101839.16;5099205;28;20123;-72
2022/12/06 00:21:24;;;;;;;6.22;2.67;;;;;;;3.94;76.51;101834.25;5112388;28;20028;-72
2022/12/06 00:23:52;;;;;;;9.68;2.92;;;;;;;4.04;76.13;101833.44;5103556;28;20015;-72
2022/12/06 00:26:19;;;;;;;7.45;3.10;;;;;;;3.98;75.84;101832.16;5107039;28;20024;-71
2022/12/06 00:28:45;;;;;;;4.63;3.05;;;;;;;3.97;76.63;101830.44;5112650;28;20031;-72
2022/12/06 00:31:18;;;;;;;5.25;2.80;;;;;;;3.96;75.82;101828.75;5101492;28;20028;-72
2022/12/06 00:34:03;;;;;;;4.07;2.90;;;;;;;3.96;76.26;101828.75;5112010;28;20027;-72
2022/12/06 00:36:34;;;;;;;5.40;3.20;;;;;;;3.87;76.41;101822.41;5074980;28;20040;-72
2022/12/06 00:39:12;;;;;;;6.45;2.88;;;;;;;3.93;76.84;101831.69;5058422;28;20085;-72
2022/12/06 00:41:38;;;;;;;4.82;3.00;;;;;;;3.80;77.23;101829.22;5075061;28;20620;-72
2022/12/06 00:44:04;;;;;;;7.28;3.30;;;;;;;3.78;77.40;101827.69;5041540;28;20172;-72
2022/12/06 00:46:31;;;;;;;5.43;2.88;;;;;;;3.84;76.97;101819.16;5058273;28;20044;-72
2022/12/06 00:48:58;;;;;;;3.53;2.70;;;;;;;3.89;76.91;101820.47;5075137;28;20033;-72
2022/12/06 00:51:26;;;;;;;3.65;2.75;;;;;;;3.88;76.36;101813.47;5058136;28;20036;-72
2022/12/06 00:53:52;;;;;;;4.57;2.60;;;;;;;3.63;76.62;101781.91;5074781;28;20392;-71
2022/12/06 00:56:18;;;;;;;5.70;3.03;;;;;;;3.78;76.75;101801.91;5054528;28;20098;-72
2022/12/06 00:58:44;;;;;;;4.18;2.85;;;;;;;3.64;77.12;101778.25;5051833;28;20234;-72
2022/12/06 01:01:21;;;;;;;3.72;2.88;;;;;;;3.93;76.73;101803.22;5074447;28;20094;-72
2022/12/06 01:03:50;;;;;;;5.55;3.03;;;;;;;4.00;76.56;101801.72;5057890;28;20169;-72
2022/12/06 01:06:18;;;;;;;5.32;3.00;;;;;;;3.99;76.04;101793.88;5041362;28;20036;-72
2022/12/06 01:08:43;;;;;;;4.97;2.80;;;;;;;3.99;76.21;101793.88;5105583;28;20024;-71
2022/12/06 01:11:11;;;;;;;4.90;3.00;;;;;;;3.99;75.92;101783.22;5099306;28;20039;-72
2022/12/06 01:13:37;;;;;;;4.15;3.15;;;;;;;4.00;75.80;101790.25;5110900;28;20054;-71
2022/12/06 01:16:04;;;;;;;4.68;2.95;;;;;;;3.98;75.88;101789.53;5105944;28;20473;-71
2022/12/06 01:18:30;;;;;;;4.20;3.25;;;;;;;3.91;76.02;101773.25;5104365;28;20383;-71
2022/12/06 01:20:55;;;;;;;5.82;3.30;;;;;;;3.99;75.99;101777.91;5111974;28;20042;-71
2022/12/06 01:23:20;;;;;;;4.80;2.85;;;;;;;3.99;76.79;101778.75;5082110;28;20555;-71
2022/12/06 01:25:51;;;;;;;7.25;3.42;;;;;;;3.90;77.06;101781.34;5110931;28;20039;-72
2022/12/06 01:28:17;;;;;;;4.03;3.10;;;;;;;3.80;76.34;101772.47;5089958;28;20047;-72
2022/12/06 01:30:42;;;;;;;3.83;2.90;;;;;;;3.61;77.08;101747.44;5084171;28;20050;-72
2022/12/06 01:33:08;;;;;;;4.10;2.78;;;;;;;3.79;76.60;101771.63;5113419;28;20367;-72
2022/12/06 01:35:38;;;;;;;5.88;3.55;;;;;;;3.65;77.20;101746.19;5083461;28;20019;-72
2022/12/06 01:38:03;;;;;;;4.60;2.95;;;;;;;3.80;77.86;101764.47;5106944;28;20034;-72
2022/12/06 01:40:29;;;;;;;5.00;3.08;;;;;;;3.74;77.81;101772.03;5107571;28;20114;-72
2022/12/06 01:42:54;;;;;;;4.50;2.70;;;;;;;3.65;77.41;101738.22;5099903;28;20028;-72
2022/12/06 01:45:19;;;;;;;4.82;3.20;;;;;;;3.73;78.04;101757.03;5112275;28;20040;-72
2022/12/06 01:47:45;;;;;;;6.30;3.47;;;;;;;3.79;77.85;101754.81;5101089;28;20035;-72
2022/12/06 01:50:17;;;;;;;6.40;3.30;;;;;;;3.66;77.49;101731.91;5089011;28;20036;-72
2022/12/06 01:52:52;;;;;;;5.22;3.20;;;;;;;3.69;77.35;101760.09;5109506;28;20091;-72
2022/12/06 01:55:20;;;;;;;5.63;3.28;;;;;;;3.54;78.26;101756.91;5100029;28;20135;-72
2022/12/06 01:57:50;;;;;;;6.78;3.15;;;;;;;3.45;78.09;101741.72;5108692;28;20028;-72
2022/12/06 02:00:15;;;;;;;3.90;3.00;;;;;;;3.51;77.36;101758.03;5105398;28;20062;-72
2022/12/06 02:02:41;;;;;;;4.38;3.30;;;;;;;3.47;77.60;101753.91;5101440;28;20035;-72
2022/12/06 02:05:07;;;;;;;3.97;3.20;;;;;;;3.35;78.33;101746.13;5113301;28;20035;-72
2022/12/06 02:07:33;;;;;;;7.63;4.05;;;;;;;3.43;78.55;101749.81;5099484;28;20019;-72
2022/12/06 02:09:58;;;;;;;5.40;3.55;;;;;;;3.27;80.10;101742.28;5090467;28;20422;-72
2022/12/06 02:12:24;;;;;;;4.35;3.30;;;;;;;3.18;79.96;101727.13;5090296;28;20118;-72
2022/12/06 02:14:53;;;;;;;5.82;3.35;;;;;;;2.80;83.74;101747.06;5099496;28;20085;-72
2022/12/06 02:17:43;;;;;;;5.55;3.20;;;;;;;2.88;83.65;101738.47;5112797;28;20425;-72
2022/12/06 02:20:21;;;;;;;4.78;3.33;;;;;;;2.72;83.85;101738.88;5104692;28;20040;-72
2022/12/06 02:22:55;;;;;;;5.47;3.38;;;;;;;2.90;83.30;101731.22;5101681;28;20039;-72
2022/12/06 02:25:42;;;;;;;4.60;2.95;;;;;;;2.96;82.89;101729.88;5113103;28;20433;-72
2022/12/06 02:28:10;;;;;;;7.35;2.90;;;;;;;2.86;83.26;101729.78;5104600;28;20032;-72
2022/12/06 02:30:51;;;;;;;5.80;3.08;;;;;;;2.06;84.27;101629.19;5105879;28;20023;-71
2022/12/06 02:33:22;;;;;;;3.95;2.78;;;;;;;2.81;83.36;101721.31;5117012;28;20027;-72
2022/12/06 02:35:54;;;;;;;4.85;3.08;;;;;;;2.68;83.64;101717.97;5106815;28;20114;-72
2022/12/06 02:38:32;;;;;;;3.78;2.65;;;;;;;2.63;83.50;101694.47;5108171;28;20428;-72
2022/12/06 02:41:02;;;;;;;4.07;2.40;;;;;;;2.80;83.12;101714.34;5116355;28;20038;-72
2022/12/06 02:43:39;;;;;;;3.25;2.47;;;;;;;2.90;82.91;101709.09;5085855;28;20026;-72
2022/12/06 02:46:07;;;;;;;3.03;2.00;;;;;;;2.92;81.80;101692.06;5109761;28;20028;-72
2022/12/06 02:48:33;;;;;;;3.47;2.17;;;;;;;2.98;82.11;101712.81;5112379;28;20046;-72
2022/12/06 02:51:04;;;;;;;5.85;4.13;;;;;;;2.79;82.44;101684.25;5085391;28;20073;-72
2022/12/06 02:53:33;;;;;;;5.55;3.30;;;;;;;3.12;82.35;101703.69;5086213;28;20375;-72
2022/12/06 02:55:59;;;;;;;5.60;3.80;;;;;;;3.09;82.94;101703.94;5111534;28;20024;-72
2022/12/06 02:58:25;;;;;;;5.38;3.88;;;;;;;2.98;83.98;101696.00;5109629;28;20669;-72
2022/12/06 03:01:16;;;;;;;7.40;3.92;;;;;;;2.81;84.96;101679.66;5064005;28;20044;-72
2022/12/06 03:03:54;;;;;;;6.45;4.20;;;;;;;2.81;85.87;101692.97;5050966;28;20422;-72
2022/12/06 03:06:30;;;;;;;9.18;4.60;;;;;;;2.59;88.34;101696.53;5068692;28;20033;-71
2022/12/06 03:09:04;;;;;;;7.30;4.57;;;;;;;2.77;85.67;101691.50;5074832;28;20111;-72
2022/12/06 03:12:05;;;;;;;6.65;4.82;;;;;;;2.88;84.20;101697.75;5061923;28;20398;-72
2022/12/06 03:14:44;;;;;;;8.70;6.15;;;;;;;2.57;85.97;101694.97;5057217;28;20024;-71
2022/12/06 03:17:26;;;;;;;6.82;5.38;;;;;;;2.66;86.04;101696.88;5075435;28;20029;-72
2022/12/06 03:20:08;;;;;;;8.65;4.93;;;;;;;2.62;86.51;101692.78;5061641;28;20391;-72
2022/12/06 03:22:42;;;;;;;8.80;5.18;;;;;;;2.45;88.46;101695.94;5066750;28;20415;-72
2022/12/06 03:25:09;;;;;;;8.40;4.90;;;;;;;2.40;87.42;101701.63;5074043;28;20091;-72
2022/12/06 03:27:35;;;;;;;7.43;4.95;;;;;;;1.95;88.23;101645.94;5063395;28;20099;-72
2022/12/06 03:30:04;;;;;;;8.77;5.20;;;;;;;2.33;89.09;101685.34;5086784;28;20021;-72
2022/12/06 03:32:51;;;;;;;7.65;4.63;;;;;;;2.47;87.25;101684.22;5069950;28;20105;-72
2022/12/06 03:35:24;;;;;;;9.00;5.57;;;;;;;2.40;87.83;101685.72;5100159;28;20102;-72
2022/12/06 03:37:56;;;;;;;8.50;6.13;;;;;;;2.26;87.81;101673.53;5107121;28;20051;-72
2022/12/06 03:40:31;;;;;;;8.45;5.45;;;;;;;2.37;87.89;101685.13;5090984;28;20059;-72
2022/12/06 03:42:57;;;;;;;9.05;5.93;;;;;;;2.01;87.07;101631.34;5083998;28;20039;-72
2022/12/06 03:45:31;;;;;;;8.65;5.78;;;;;;;2.24;86.89;101667.50;5113825;28;20107;-72
2022/12/06 03:48:07;;;;;;;9.70;7.00;;;;;;;2.38;86.59;101684.97;5087415;28;20112;-72
2022/12/06 03:50:38;;;;;;;11.70;6.97;;;;;;;2.34;86.40;101675.56;5104304;28;20040;-72
2022/12/06 03:53:03;;;;;;;9.93;6.43;;;;;;;2.31;86.01;101675.81;5096701;28;20045;-72
2022/12/06 03:55:29;;;;;;;9.77;6.68;;;;;;;2.08;86.20;101651.13;5083434;28;20039;-72
2022/12/06 03:57:54;;;;;;;8.93;6.72;;;;;;;2.21;86.20;101672.22;5092863;28;20036;-72
2022/12/06 04:00:19;;;;;;;8.85;6.22;;;;;;;2.26;86.12;101678.03;5107017;28;20105;-73
2022/12/06 04:02:45;;;;;;;8.63;6.32;;;;;;;2.26;85.47;101667.41;5052346;28;20544;-72
2022/12/06 04:05:11;;;;;;;10.95;6.78;;;;;;;2.24;85.23;101669.31;5113573;28;20040;-71
2022/12/06 04:07:37;;;;;;;8.48;6.32;;;;;;;2.08;85.31;101643.16;5084213;28;20028;-72
2022/12/06 04:10:03;;;;;;;9.85;5.55;;;;;;;2.17;85.13;101668.13;5108089;28;20051;-72
2022/12/06 04:15:14;;;;;;;8.20;5.78;;;;;;;2.07;85.63;101671.50;5082130;28;20833;-72
2022/12/06 04:20:26;;;;;;;8.77;6.47;;;;;;;1.83;85.41;101636.31;5090669;28;20031;-72
2022/12/06 04:23:05;;;;;;;8.93;6.25;;;;;;;1.88;85.47;101658.00;5081992;28;20044;-72
2022/12/06 04:25:35;;;;;;;9.98;6.95;;;;;;;1.83;86.48;101661.03;5065658;28;20150;-72
2022/12/06 04:38:57;;;;;;;12.32;8.73;;;;;;;1.40;90.28;101667.06;5093959;28;20035;-72
2022/12/06 04:44:27;;;;;;;12.25;8.55;;;;;;;1.11;91.95;101647.22;5044033;28;20033;-72
2022/12/06 04:46:52;;;;;;;12.77;9.20;;;;;;;1.06;92.29;101644.06;5050376;28;20056;-72
2022/12/06 04:49:17;;;;;;;13.48;10.18;;;;;;;0.89;93.55;101646.22;5039851;28;20087;-72
2022/12/06 04:51:43;;;;;;;13.35;9.60;;;;;;;0.76;93.36;101621.59;5073650;28;20078;-72
2022/12/06 04:54:08;;;;;;;12.98;9.38;;;;;;;0.86;93.36;101648.22;5084716;28;20127;-72
2022/12/06 04:56:34;;;;;;;13.13;9.15;;;;;;;0.77;93.33;101641.84;5084702;28;20028;-72
2022/12/06 04:58:59;;;;;;;11.20;7.95;;;;;;;0.81;93.04;101645.09;5096772;28;20059;-72
2022/12/06 05:01:24;;;;;;;12.38;8.45;;;;;;;0.89;92.34;101634.75;5099616;28;20125;-71
2022/12/06 05:03:50;;;;;;;14.50;8.90;;;;;;;0.87;91.88;101637.53;5110046;28;20023;-72
2022/12/06 05:06:15;;;;;;;11.60;8.40;;;;;;;0.91;90.90;101638.16;5105811;28;20063;-73
2022/12/06 05:08:41;;;;;;;14.60;8.13;;;;;;;0.96;89.58;101629.84;5085892;28;20046;-73
2022/12/06 05:11:06;;;;;;;14.80;8.48;;;;;;;0.90;89.40;101631.16;5113519;28;20096;-73
2022/12/06 05:13:32;;;;;;;13.15;9.00;;;;;;;1.02;88.90;101626.72;5099864;28;20028;-73
2022/12/06 05:16:00;;;;;;;10.95;7.70;;;;;;;0.83;89.29;101612.25;5108682;28;20028;-72
2022/12/06 05:18:26;;;;;;;17.17;8.80;;;;;;;0.90;89.39;101625.88;5108928;28;20110;-73
2022/12/06 05:21:01;;;;;;;11.63;7.53;;;;;;;0.70;90.23;101617.63;5100909;28;20058;-69
2022/12/06 05:23:26;;;;;;;12.30;7.72;;;;;;;0.69;90.39;101620.34;5113343;28;20081;-73
2022/12/06 05:25:57;;;;;;;14.45;8.18;;;;;;;0.51;90.95;101617.28;5102776;28;20085;-69
2022/12/06 05:28:22;;;;;;;13.52;8.00;;;;;;;0.65;90.13;101616.25;5105632;28;20032;-70
2022/12/06 05:30:48;;;;;;;12.52;7.55;;;;;;;0.28;90.90;101579.28;5110759;28;20401;-70
2022/12/06 05:33:13;;;;;;;13.82;8.23;;;;;;;0.34;91.81;101597.38;5065386;28;20070;-70
2022/12/06 05:35:39;;;;;;;11.57;7.07;;;;;;;0.31;92.29;101608.19;5113289;28;20410;-71
2022/12/06 05:38:04;;;;;;;12.60;7.28;;;;;;;0.35;91.76;101590.25;5103868;28;20020;-72
2022/12/06 05:40:29;;;;;;;9.63;6.60;;;;;;;0.58;90.69;101612.38;5120818;28;20032;-69
2022/12/06 05:42:55;;;;;;;10.63;6.95;;;;;;;0.63;89.64;101615.50;5113826;28;20421;-71
2022/12/06 05:45:20;;;;;;;10.32;6.93;;;;;;;0.37;89.75;101575.97;5100008;28;20095;-70
2022/12/06 05:47:45;;;;;;;12.20;7.15;;;;;;;0.57;89.74;101614.19;5110377;28;20471;-72
2022/12/06 05:50:11;;;;;;;12.00;7.65;;;;;;;0.63;89.70;101619.03;5104202;28;20038;-71
2022/12/06 05:52:36;;;;;;;12.30;7.28;;;;;;;0.82;88.86;101605.22;5104046;28;20042;-72
2022/12/06 05:55:02;;;;;;;12.55;7.55;;;;;;;0.92;88.25;101608.03;5113453;28;20035;-71
2022/12/06 05:57:27;;;;;;;12.25;7.47;;;;;;;0.77;88.35;101612.69;5099177;28;20031;-72
2022/12/06 05:59:53;;;;;;;13.75;7.97;;;;;;;0.83;88.67;101612.25;5108840;28;20059;-72
2022/12/06 06:02:18;;;;;;;12.55;7.63;;;;;;;0.88;88.19;101606.56;5106232;28;20043;-71
2022/12/06 06:04:43;;;;;;;15.90;8.38;;;;;;;0.80;88.68;101606.31;5105878;28;20039;-72
2022/12/06 06:07:09;;;;;;;13.45;7.95;;;;;;;0.56;88.72;101578.06;5118299;28;20039;-73
2022/12/06 06:09:34;;;;;;;17.50;8.57;;;;;;;0.52;89.06;101576.59;5104333;28;20107;-72
2022/12/06 06:11:59;;;;;;;16.52;10.15;;;;;;;0.61;89.59;101605.06;5112767;28;20031;-72
2022/12/06 06:14:25;;;;;;;13.32;8.05;;;;;;;0.61;89.88;101606.84;5111202;28;20039;-71
2022/12/06 06:16:51;;;;;;;16.45;9.00;;;;;;;0.59;90.08;101603.47;5105563;28;20059;-70
2022/12/06 06:19:16;;;;;;;16.83;9.80;;;;;;;0.70;89.55;101599.06;5117871;28;20057;-71
2022/12/06 06:21:42;;;;;;;18.38;11.18;;;;;;;0.72;89.24;101592.81;5106885;28;20059;-71
2022/12/06 06:24:07;;;;;;;17.60;11.98;;;;;;;0.85;88.25;101591.75;5077792;28;20036;-71
2022/12/06 06:26:33;;;;;;;16.58;11.85;;;;;;;0.92;88.22;101595.63;5113686;28;20035;-71
2022/12/06 06:28:58;;;;;;;15.40;10.45;;;;;;;0.93;87.94;101594.69;5087384;28;20055;-72
2022/12/06 06:31:24;;;;;;;13.75;9.23;;;;;;;0.97;87.70;101581.19;5099894;28;20046;-71
2022/12/06 06:33:49;;;;;;;13.95;8.63;;;;;;;0.99;87.68;101581.91;5105728;28;20035;-71
2022/12/06 06:36:15;;;;;;;13.07;8.60;;;;;;;0.97;87.29;101575.91;5109828;28;20043;-72
2022/12/06 06:38:40;;;;;;;13.63;8.30;;;;;;;0.92;87.78;101578.88;5112234;28;20081;-71
2022/12/06 06:41:06;;;;;;;25.48;15.45;;;;;;;0.37;88.61;101507.13;5103610;28;20032;-71
2022/12/06 06:43:31;;;;;;;13.70;9.25;;;;;;;0.83;88.60;101580.44;5116540;28;20482;-71
2022/12/06 06:45:59;;;;;;;13.93;8.38;;;;;;;0.91;88.49;101582.50;5107447;28;20031;-71
2022/12/06 06:48:28;;;;;;;13.50;7.85;;;;;;;0.86;88.80;101576.69;5107991;28;20024;-72
2022/12/06 06:50:54;;;;;;;13.50;8.65;;;;;;;0.91;88.17;101578.03;5114965;28;20037;-71
2022/12/06 06:53:19;;;;;;;13.77;8.63;;;;;;;0.87;88.01;101559.84;5101923;28;20403;-71
2022/12/06 06:55:46;;;;;;;13.15;8.85;;;;;;;1.01;87.49;101572.03;5114152;28;20036;-71
2022/12/06 06:58:15;;;;;;;12.25;8.43;;;;;;;0.98;87.30;101565.16;5107716;28;20042;-71
2022/12/06 07:00:41;;;;;;;11.90;8.20;;;;;;;0.79;88.50;101562.22;5087725;28;20061;-71
2022/12/06 07:03:13;;;;;;;13.60;8.60;;;;;;;0.71;89.01;101565.47;5113680;28;20028;-71
2022/12/06 07:05:39;;;;;;;17.45;11.85;;;;;;;0.67;89.52;101564.03;5103214;28;20028;-71
2022/12/06 07:08:04;;;;;;;17.35;12.05;;;;;;;0.63;88.99;101557.25;5109403;28;20479;-71
2022/12/06 07:10:30;;;;;;;17.38;10.45;;;;;;;0.52;89.21;101550.13;5091953;28;20042;-71
2022/12/06 07:12:56;;;;;;;13.75;9.18;;;;;;;0.50;90.34;101567.06;5085003;28;20644;-71
2022/12/06 07:15:21;;;;;;;14.30;8.98;;;;;;;0.52;89.81;101549.28;5115022;28;20032;-70
2022/12/06 07:17:47;;;;;;;14.40;9.20;;;;;;;0.56;89.54;101556.03;5086025;28;20417;-71
2022/12/06 07:20:12;;;;;;;14.00;8.13;;;;;;;0.67;89.51;101553.44;5091426;28;20118;-71
2022/12/06 07:22:38;;;;;;;15.32;9.27;;;;;;;0.60;89.01;101534.50;5111151;28;20036;-71
2022/12/06 07:25:04;;;;;;;13.88;9.20;;;;;;;0.51;88.42;101513.19;5100646;28;20028;-71
2022/12/06 07:27:33;;;;;;;19.88;9.90;;;;;;;0.74;88.64;101541.41;5113591;28;20028;-71
2022/12/06 07:29:58;;;;;;;15.70;9.68;;;;;;;0.77;88.18;101535.03;5104519;28;20055;-70
2022/12/06 07:32:24;;;;;;;17.23;9.75;;;;;;;0.68;88.49;101540.06;5106132;28;20067;-71
2022/12/06 07:34:49;;;;;;;14.70;9.30;;;;;;;0.63;88.45;101534.28;5112282;28;20039;-71
2022/12/06 07:37:17;;;;;;;18.95;9.93;;;;;;;0.42;89.47;101539.38;5100032;28;20107;-71
2022/12/06 07:39:43;;;;;;;21.23;11.18;;;;;;;0.54;88.87;101544.72;5112212;28;20024;-71
2022/12/06 07:45:03;;;;;;;22.60;10.95;;;;;;;0.19;90.31;101521.72;5102551;28;20042;-71
2022/12/06 07:47:37;;;;;;;24.52;11.90;;;;;;;0.32;90.24;101542.84;5115174;28;20111;-71
2022/12/06 07:50:04;;;;;;;33.70;12.63;;;;;;;0.29;90.47;101529.81;5105654;28;20397;-71
2022/12/06 07:52:34;;;;;;;24.85;15.20;;;;;;;0.26;90.47;101524.75;5105147;28;20035;-71
2022/12/06 07:54:59;;;;;;;34.65;16.40;;;;;;;0.30;90.18;101523.56;5113595;28;20031;-71
2022/12/06 07:57:25;;;;;;;37.78;17.38;;;;;;;0.25;90.30;101505.41;5101614;28;20555;-71
2022/12/06 07:59:51;;;;;;;38.60;15.05;;;;;;;0.51;90.36;101532.56;5077746;28;1505299;-71
2022/12/06 08:02:19;;;;;;;24.65;13.05;;;;;;;0.31;89.94;101497.00;5128072;28;20042;-71
2022/12/06 08:04:45;;;;;;;26.92;13.45;;;;;;;0.65;89.37;101535.00;5123657;27;20020;-71
2022/12/06 08:07:10;;;;;;;26.60;13.82;;;;;;;0.61;90.29;101536.19;5115726;28;20049;-71
2022/12/06 08:09:36;;;;;;;28.52;13.88;;;;;;;0.63;90.09;101533.41;5102596;28;20517;-71
2022/12/06 08:12:02;;;;;;;26.13;12.50;;;;;;;0.58;89.48;101506.44;5093140;28;20103;-71
2022/12/06 08:14:27;;;;;;;24.35;13.02;;;;;;;0.82;89.21;101532.84;5110287;28;20020;-71
2022/12/06 08:16:53;;;;;;;24.73;13.80;;;;;;;0.84;89.33;101537.09;5102926;28;20506;-71
2022/12/06 08:19:18;;;;;;;26.20;14.70;;;;;;;0.81;89.53;101536.47;5097291;28;20152;-71
2022/12/06 08:21:44;;;;;;;29.67;15.70;;;;;;;0.88;89.76;101540.34;5085321;28;20095;-71
2022/12/06 08:24:10;;;;;;;25.05;14.40;;;;;;;0.98;89.48;101532.53;5108727;28;20093;-71
2022/12/06 08:26:36;;;;;;;25.25;13.98;;;;;;;1.02;89.03;101526.03;5109821;28;20038;-71
2022/12/06 08:29:02;;;;;;;23.92;13.98;;;;;;;1.08;89.01;101530.84;5102531;28;20028;-72
2022/12/06 08:31:29;;;;;;;25.50;13.95;;;;;;;1.01;88.92;101513.75;5112849;28;20081;-71
2022/12/06 08:33:55;;;;;;;24.05;13.68;;;;;;;1.06;88.74;101516.84;5103596;28;20122;-71
2022/12/06 08:36:22;;;;;;;21.88;12.98;;;;;;;1.05;89.37;101528.44;5107142;28;20043;-71
2022/12/06 08:38:49;;;;;;;22.67;14.10;;;;;;;1.11;89.66;101517.34;5110842;28;20042;-71
2022/12/06 08:44:00;;;;;;;21.77;13.23;;;;;;;1.12;90.04;101511.91;5111195;28;20570;-71
2022/12/06 08:46:27;;;;;;;22.90;13.35;;;;;;;1.10;90.39;101520.97;5108791;28;20035;-70
2022/12/06 08:48:52;;;;;;;19.75;13.13;;;;;;;0.93;91.19;101511.69;5103110;28;20055;-71
2022/12/06 08:51:20;;;;;;;17.17;11.40;;;;;;;0.87;92.50;101513.00;5112863;28;20036;-71
2022/12/06 08:53:46;;;;;;;23.63;15.35;;;;;;;1.02;91.93;101518.06;5103155;28;20028;-71
2022/12/06 08:56:11;;;;;;;21.95;14.02;;;;;;;1.03;92.15;101519.78;5107902;28;20028;-71
2022/12/06 08:58:37;;;;;;;20.35;13.05;;;;;;;1.03;92.13;101512.66;5108572;28;20039;-71
2022/12/06 09:01:14;;;;;;;19.40;12.90;;;;;;;0.92;91.80;101481.69;5100526;28;20392;-71
2022/12/06 09:03:46;;;;;;;20.20;13.23;;;;;;;1.11;91.97;101504.94;5084768;28;20031;-71
2022/12/06 09:06:12;;;;;;;18.77;13.15;;;;;;;1.26;91.42;101516.16;5107318;28;20038;-71
2022/12/06 09:08:38;;;;;;;16.83;10.98;;;;;;;1.07;91.21;101486.75;5110056;28;20127;-71
2022/12/06 09:11:04;;;;;;;19.83;12.05;;;;;;;1.21;91.37;101510.38;5101388;28;20400;-71
2022/12/06 09:13:30;;;;;;;16.83;11.98;;;;;;;1.06;92.00;101511.56;5113642;28;20028;-71
2022/12/06 09:15:56;;;;;;;18.80;12.60;;;;;;;1.05;92.34;101512.53;5102130;28;20019;-71
2022/12/06 09:18:22;;;;;;;23.33;14.00;;;;;;;1.04;92.34;101514.34;5107357;28;20040;-71
2022/12/06 09:20:47;;;;;;;17.15;11.23;;;;;;;0.84;92.22;101477.97;5111404;28;20052;-71
2022/12/06 09:23:13;;;;;;;16.73;11.95;;;;;;;0.96;92.08;101495.56;5099390;28;20592;-71
2022/12/06 09:25:41;;;;;;;20.83;13.15;;;;;;;1.26;92.20;101518.81;5113062;28;20387;-71
2022/12/06 09:28:07;;;;;;;17.73;12.55;;;;;;;1.30;91.66;101514.09;5104954;28;20042;-71
2022/12/06 09:30:33;;;;;;;23.25;16.02;;;;;;;1.26;91.71;101504.69;5103834;28;20040;-70
2022/12/06 09:32:58;;;;;;;16.75;10.82;;;;;;;1.00;91.73;101474.97;5112414;28;20538;-71
2022/12/06 09:35:24;;;;;;;20.08;13.45;;;;;;;1.03;91.31;101472.91;5100772;28;20032;-71
2022/12/06 09:37:50;;;;;;;22.58;14.30;;;;;;;1.30;90.77;101501.69;5109545;28;20026;-71
2022/12/06 09:40:45;;;;;;;18.65;11.90;;;;;;;1.33;90.74;101500.59;5105489;28;20035;-71
2022/12/06 09:43:29;;;;;;;21.50;13.18;;;;;;;1.12;91.44;101498.66;5065140;28;20044;-71
2022/12/06 09:45:57;;;;;;;24.40;15.40;;;;;;;1.20;91.44;101495.44;5109481;28;20447;-71
2022/12/06 09:48:40;;;;;;;19.10;12.35;;;;;;;1.30;90.77;101491.09;5106868;28;20405;-71
2022/12/06 09:51:19;;;;;;;17.90;11.93;;;;;;;1.06;91.17;101493.00;5100581;28;20085;-71
2022/12/06 09:54:03;;;;;;;16.67;11.30;;;;;;;1.09;91.50;101487.47;5086943;28;20023;-71
2022/12/06 09:56:56;;;;;;;20.92;13.07;;;;;;;1.24;90.40;101491.56;5105961;28;20028;-71
2022/12/06 09:59:35;;;;;;;17.63;12.25;;;;;;;1.33;90.28;101485.53;5112309;28;20043;-71
2022/12/06 10:02:25;;;;;;;19.92;10.30;;;;;;;1.23;90.54;101481.94;5103968;28;20032;-70
2022/12/06 10:05:09;;;;;;;14.13;10.07;;;;;;;1.13;90.25;101476.53;5102608;28;20024;-71
2022/12/06 10:07:44;;;;;;;14.90;9.40;;;;;;;1.14;90.66;101482.66;5076860;28;20033;-71
2022/12/06 10:10:44;;;;;;;12.20;8.30;;;;;;;1.04;90.70;101471.09;5096149;28;20027;-74
2022/12/06 10:13:46;;;;;;;13.23;8.85;;;;;;;1.08;90.70;101464.59;5118726;28;20020;-72
2022/12/06 10:16:36;;;;;;;10.25;7.70;;;;;;;1.28;90.47;101466.50;5116430;28;20407;-71
2022/12/06 10:19:18;;;;;;;12.98;9.05;;;;;;;1.27;89.53;101459.50;5113275;28;20035;-71
2022/12/06 10:22:11;;;;;;;12.75;9.07;;;;;;;1.32;89.24;101459.97;5086982;28;20032;-71
2022/12/06 10:25:06;;;;;;;13.00;8.63;;;;;;;1.28;89.58;101463.84;5104470;28;20028;-71
2022/12/06 10:27:56;;;;;;;10.57;7.82;;;;;;;1.28;89.02;101457.69;5075325;28;20055;-71
2022/12/06 10:30:22;;;;;;;12.45;7.93;;;;;;;1.19;89.11;101467.22;5105699;28;20039;-71
2022/12/06 10:32:49;;;;;;;10.85;7.90;;;;;;;1.25;89.36;101455.28;5108693;28;20486;-71
2022/12/06 10:35:39;;;;;;;12.93;9.30;;;;;;;1.21;89.39;101454.69;5098790;28;20089;-71
2022/12/06 10:38:26;;;;;;;11.82;8.20;;;;;;;1.26;89.12;101452.53;5107216;28;20024;-71
2022/12/06 10:41:00;;;;;;;11.07;8.07;;;;;;;1.40;88.79;101443.47;5108921;28;20043;-71
2022/12/06 10:43:48;;;;;;;12.70;8.00;;;;;;;1.51;88.39;101437.28;5098721;28;20032;-71
2022/12/06 10:49:24;;;;;;;30.23;14.88;;;;;;;1.68;87.94;101401.41;5117908;28;20084;-71
2022/12/06 10:52:21;;;;;;;45.22;24.90;;;;;;;1.83;87.66;101424.88;5107889;28;20015;-71
2022/12/06 10:54:58;;;;;;;54.05;22.20;;;;;;;1.68;88.01;101423.47;5106955;28;20122;-71
2022/12/06 10:57:38;;;;;;;20.98;10.63;;;;;;;1.45;88.01;101411.25;5125465;28;20019;-70
2022/12/06 11:00:13;;;;;;;20.63;11.73;;;;;;;1.56;88.24;101412.06;5119198;28;20135;-71
2022/12/06 11:02:41;;;;;;;13.32;8.93;;;;;;;1.56;87.81;101405.94;5118199;28;20439;-71
2022/12/06 11:05:20;;;;;;;10.65;8.30;;;;;;;1.64;87.38;101396.34;5127291;28;20050;-71
2022/12/06 11:07:48;;;;;;;149.82;43.65;;;;;;;1.53;87.53;101377.84;5117489;27;20031;-71
2022/12/06 11:10:25;;;;;;;27.40;12.43;;;;;;;1.49;87.78;101381.72;5119172;27;20028;-71
2022/12/06 11:13:08;;;;;;;11.50;8.57;;;;;;;1.62;87.61;101392.16;5105442;28;20059;-71
2022/12/06 11:15:37;;;;;;;20.70;11.48;;;;;;;1.70;87.42;101380.91;5111150;28;20386;-71
2022/12/06 11:18:11;;;;;;;12.35;9.07;;;;;;;1.97;86.64;101372.47;5121222;28;20028;-71
2022/12/06 11:20:55;;;;;;;15.68;11.30;;;;;;;1.44;87.16;101327.38;5120444;28;20053;-71
2022/12/06 11:23:59;;;;;;;41.40;26.17;;;;;;;1.81;86.90;101363.13;5112018;28;20062;-71
2022/12/06 11:26:39;;;;;;;20.75;13.63;;;;;;;1.60;86.90;101368.41;5118579;27;20030;-71
2022/12/06 11:29:10;;;;;;;26.00;16.90;;;;;;;1.85;86.77;101372.53;5125451;28;20077;-71
2022/12/06 11:31:49;;;;;;;14.27;9.75;;;;;;;1.87;86.78;101372.38;5094722;28;20026;-72
2022/12/06 11:34:46;;;;;;;12.75;9.23;;;;;;;1.97;86.63;101364.50;5120961;28;20083;-71
2022/12/06 11:37:36;;;;;;;12.70;8.85;;;;;;;1.86;87.37;101368.91;5126413;28;20024;-71
2022/12/06 11:40:26;;;;;;;14.40;8.30;;;;;;;1.74;87.13;101372.56;5114704;28;20035;-71
2022/12/06 11:42:52;;;;;;;10.25;7.85;;;;;;;1.67;87.88;101373.22;5115639;28;20020;-71
2022/12/06 11:45:44;;;;;;;12.15;8.45;;;;;;;1.64;87.62;101371.66;5124309;28;20055;-71
2022/12/06 11:48:16;;;;;;;12.32;9.68;;;;;;;1.50;88.00;101350.75;5117296;28;20039;-71
2022/12/06 11:50:43;;;;;;;14.45;8.15;;;;;;;1.57;88.24;101351.91;5116438;28;20040;-71
2022/12/06 11:53:26;;;;;;;8.90;7.10;;;;;;;1.52;87.54;101341.66;5124706;28;20050;-71
2022/12/06 11:55:56;;;;;;;9.98;6.72;;;;;;;1.65;87.43;101355.59;5100119;28;20019;-71
2022/12/06 11:58:34;;;;;;;10.52;7.70;;;;;;;1.48;87.97;101334.94;5119620;28;20141;-71
2022/12/06 12:01:09;;;;;;;10.70;7.40;;;;;;;1.75;87.39;101350.34;5122690;28;20094;-71
2022/12/06 12:03:37;;;;;;;10.50;7.65;;;;;;;1.72;87.62;101345.31;5111509;28;20028;-71
2022/12/06 12:06:23;;;;;;;9.15;6.63;;;;;;;1.57;88.14;101341.31;5120818;28;20062;-71
2022/12/06 12:09:01;;;;;;;15.85;8.38;;;;;;;1.37;88.24;101304.00;5121380;28;20075;-72
2022/12/06 12:11:30;;;;;;;8.55;6.38;;;;;;;1.40;88.35;101338.22;5111416;28;20028;-71